createdAt,value
2019-03-11T00:01:00.811Z,99.90
2019-03-11T00:03:28.637Z,99.90
2019-03-11T00:05:56.383Z,99.90
2019-03-11T00:08:24.140Z,99.90
2019-03-11T00:10:51.777Z,99.90
2019-03-11T00:13:19.969Z,99.90
2019-03-11T00:15:47.639Z,99.90
2019-03-11T00:18:15.752Z,99.90
2019-03-11T00:20:43.780Z,99.90
2019-03-11T00:23:11.968Z,99.90
2019-03-11T00:25:42.319Z,99.90
2019-03-11T00:28:10.558Z,99.90
2019-03-11T00:30:38.749Z,99.90
2019-03-11T00:33:06.546Z,99.90
2019-03-11T00:35:34.533Z,99.90
2019-03-11T00:38:02.822Z,99.90
2019-03-11T00:40:30.897Z,99.90
2019-03-11T00:42:59.047Z,99.90
2019-03-11T00:45:27.134Z,99.90
2019-03-11T00:48:02.039Z,99.90
2019-03-11T00:50:25.394Z,99.90
2019-03-11T00:52:53.079Z,99.90
2019-03-11T00:55:20.775Z,99.90
2019-03-11T00:57:48.589Z,99.90
2019-03-11T01:00:23.021Z,99.90
2019-03-11T01:02:51.749Z,99.90
2019-03-11T01:05:19.580Z,99.90
2019-03-11T01:07:47.569Z,99.90
2019-03-11T01:10:15.227Z,99.90
2019-03-11T01:12:43.684Z,99.90
2019-03-11T01:15:11.891Z,99.90
2019-03-11T01:17:39.551Z,99.90
2019-03-11T01:20:07.513Z,99.90
2019-03-11T01:22:35.108Z,99.90
2019-03-11T01:25:04.864Z,99.90
2019-03-11T01:27:32.434Z,99.90
2019-03-11T01:30:00.353Z,99.90
2019-03-11T01:32:28.829Z,99.90
2019-03-11T01:34:56.715Z,99.90
2019-03-11T01:37:24.620Z,99.90
2019-03-11T01:39:52.796Z,99.90
2019-03-11T01:42:20.573Z,99.90
2019-03-11T01:44:48.008Z,99.90
2019-03-11T01:47:15.594Z,99.90
2019-03-11T01:49:43.544Z,99.90
2019-03-11T01:52:12.127Z,99.90
2019-03-11T01:54:39.895Z,99.90
2019-03-11T01:57:08.295Z,99.90
2019-03-11T01:59:35.934Z,99.90
2019-03-11T02:02:03.813Z,99.90
2019-03-11T02:04:31.378Z,99.90
2019-03-11T02:06:59.138Z,99.90
2019-03-11T02:09:26.699Z,99.90
2019-03-11T02:11:54.568Z,99.90
2019-03-11T02:14:22.108Z,99.90
2019-03-11T02:16:50.428Z,99.90
2019-03-11T02:19:18.382Z,99.90
2019-03-11T02:21:51.384Z,99.90
2019-03-11T02:24:18.891Z,99.90
2019-03-11T02:26:46.969Z,99.90
2019-03-11T02:29:14.407Z,99.90
2019-03-11T02:31:42.495Z,99.90
2019-03-11T02:34:10.721Z,99.90
2019-03-11T02:36:38.828Z,99.90
2019-03-11T02:39:06.922Z,99.90
2019-03-11T02:41:34.483Z,99.90
2019-03-11T02:44:02.411Z,99.90
2019-03-11T02:46:29.827Z,99.90
2019-03-11T02:48:58.279Z,99.90
2019-03-11T02:51:26.452Z,99.90
2019-03-11T02:53:53.912Z,99.90
2019-03-11T02:56:22.906Z,99.90
2019-03-11T02:58:50.685Z,99.90
2019-03-11T03:01:40.632Z,99.90
2019-03-11T03:04:13.361Z,99.90
2019-03-11T03:06:40.875Z,99.90
2019-03-11T03:09:13.526Z,99.90
2019-03-11T03:16:58.658Z,99.90
2019-03-11T03:19:26.220Z,99.90
2019-03-11T03:21:56.568Z,99.90
2019-03-11T03:24:24.515Z,99.90
2019-03-11T03:26:52.755Z,99.90
2019-03-11T03:29:20.690Z,99.90
2019-03-11T03:31:48.251Z,99.90
2019-03-11T03:34:15.839Z,99.90
2019-03-11T03:36:43.439Z,99.90
2019-03-11T03:39:10.993Z,99.90
2019-03-11T03:41:38.660Z,99.90
2019-03-11T03:44:06.272Z,99.90
2019-03-11T03:46:34.148Z,99.90
2019-03-11T03:49:01.698Z,99.90
2019-03-11T03:51:29.270Z,99.90
2019-03-11T03:53:57.368Z,99.90
2019-03-11T03:56:25.248Z,99.90
2019-03-11T03:58:52.695Z,99.90
2019-03-11T04:01:20.411Z,99.90
2019-03-11T04:03:48.046Z,99.90
2019-03-11T04:06:16.089Z,99.90
2019-03-11T04:08:43.640Z,99.90
2019-03-11T04:11:11.170Z,99.90
2019-03-11T04:13:39.046Z,99.90
2019-03-11T04:16:07.045Z,99.90
2019-03-11T04:18:53.991Z,99.90
2019-03-11T04:21:21.564Z,99.90
2019-03-11T04:23:50.960Z,99.90
2019-03-11T04:26:19.068Z,99.90
2019-03-11T04:28:47.144Z,99.90
2019-03-11T04:31:15.031Z,99.90
2019-03-11T04:33:42.487Z,99.90
2019-03-11T04:36:10.342Z,99.90
2019-03-11T04:38:38.170Z,99.90
2019-03-11T04:41:05.803Z,99.90
2019-03-11T04:43:33.570Z,99.90
2019-03-11T04:46:01.506Z,99.90
2019-03-11T04:48:29.082Z,99.90
2019-03-11T04:50:57.059Z,99.90
2019-03-11T04:53:25.104Z,99.90
2019-03-11T04:55:52.895Z,99.90
2019-03-11T04:58:20.972Z,99.90
2019-03-11T05:00:52.105Z,99.90
2019-03-11T05:03:19.713Z,99.90
2019-03-11T05:05:47.335Z,99.90
2019-03-11T05:08:15.457Z,99.90
2019-03-11T05:10:43.297Z,99.90
2019-03-11T05:13:10.790Z,99.90
2019-03-11T05:15:38.525Z,99.90
2019-03-11T05:18:06.065Z,99.90
2019-03-11T05:20:33.792Z,99.90
2019-03-11T05:23:01.223Z,99.90
2019-03-11T05:25:29.069Z,99.90
2019-03-11T05:27:56.911Z,99.90
2019-03-11T05:30:24.537Z,99.90
2019-03-11T05:32:52.170Z,99.90
2019-03-11T05:35:20.189Z,99.90
2019-03-11T05:37:48.328Z,99.90
2019-03-11T05:40:15.857Z,99.90
2019-03-11T05:42:44.268Z,99.90
2019-03-11T05:45:12.107Z,99.90
2019-03-11T05:47:40.389Z,99.90
2019-03-11T05:50:10.271Z,99.90
2019-03-11T05:52:38.476Z,99.90
2019-03-11T05:55:06.608Z,99.90
2019-03-11T05:57:34.612Z,99.90
2019-03-11T06:00:02.236Z,99.90
2019-03-11T06:02:29.897Z,99.90
2019-03-11T06:04:58.127Z,99.90
2019-03-11T06:07:26.998Z,99.90
2019-03-11T06:09:55.087Z,99.90
2019-03-11T06:12:23.175Z,99.90
2019-03-11T06:14:51.813Z,99.90
2019-03-11T06:17:19.526Z,99.90
2019-03-11T06:19:48.786Z,99.90
2019-03-11T06:22:19.630Z,99.90
2019-03-11T06:24:47.210Z,99.90
2019-03-11T06:27:15.276Z,99.90
2019-03-11T06:29:43.682Z,99.90
2019-03-11T06:32:11.492Z,99.90
2019-03-11T06:34:39.040Z,99.90
2019-03-11T06:37:07.102Z,99.90
2019-03-11T06:39:34.592Z,99.90
2019-03-11T06:42:02.443Z,99.90
2019-03-11T06:44:30.278Z,99.90
2019-03-11T06:46:57.976Z,99.90
2019-03-11T06:49:25.512Z,99.90
2019-03-11T06:51:53.555Z,99.90
2019-03-11T06:54:22.062Z,99.90
2019-03-11T06:56:49.704Z,99.90
2019-03-11T06:59:17.277Z,99.90
2019-03-11T07:01:45.039Z,99.90
2019-03-11T07:04:12.694Z,99.90
2019-03-11T07:06:41.185Z,99.90
2019-03-11T07:09:09.139Z,99.90
2019-03-11T07:11:36.779Z,99.90
2019-03-11T07:14:04.386Z,99.90
2019-03-11T07:16:32.756Z,99.90
2019-03-11T07:19:01.161Z,99.90
2019-03-11T07:21:29.468Z,99.90
2019-03-11T07:23:57.035Z,99.90
2019-03-11T07:26:24.545Z,99.90
2019-03-11T07:28:52.589Z,99.90
2019-03-11T07:31:20.566Z,99.90
2019-03-11T07:33:48.201Z,99.90
2019-03-11T07:36:18.415Z,99.90
2019-03-11T07:38:46.335Z,99.90
2019-03-11T07:41:14.670Z,99.90
2019-03-11T07:43:42.501Z,99.90
2019-03-11T07:46:10.938Z,99.90
2019-03-11T07:48:39.331Z,99.90
2019-03-11T07:51:07.300Z,99.90
2019-03-11T07:53:35.005Z,99.90
2019-03-11T07:56:02.654Z,99.90
2019-03-11T07:58:30.353Z,99.90
2019-03-11T08:00:57.960Z,99.90
2019-03-11T08:03:25.467Z,99.90
2019-03-11T08:05:53.341Z,99.90
2019-03-11T08:08:20.821Z,99.90
2019-03-11T08:10:48.370Z,99.90
2019-03-11T08:13:16.716Z,99.90
2019-03-11T08:15:44.655Z,99.90
2019-03-11T08:18:13.303Z,99.90
2019-03-11T08:20:40.972Z,99.90
2019-03-11T08:23:08.449Z,99.90
2019-03-11T08:25:35.967Z,99.90
2019-03-11T08:28:03.783Z,99.90
2019-03-11T08:30:31.462Z,99.90
2019-03-11T08:32:59.452Z,99.90
2019-03-11T08:35:27.016Z,99.90
2019-03-11T08:37:54.632Z,99.90
2019-03-11T08:40:22.158Z,99.90
2019-03-11T08:42:50.069Z,99.90
2019-03-11T08:45:18.114Z,99.90
2019-03-11T08:47:46.009Z,99.90
2019-03-11T08:50:13.546Z,99.90
2019-03-11T08:52:41.055Z,99.90
2019-03-11T08:55:11.546Z,99.90
2019-03-11T09:43:23.437Z,99.70
2019-03-11T09:45:56.281Z,95.50
2019-03-11T09:48:38.285Z,99.30
2019-03-11T10:33:21.776Z,85.60
2019-03-11T11:56:30.345Z,91.60
2019-03-11T11:58:57.019Z,83.10
2019-03-11T12:01:24.782Z,85.60
2019-03-11T12:03:52.796Z,87.70
2019-03-11T12:06:20.339Z,83.30
2019-03-11T12:08:48.045Z,88.30
2019-03-11T12:11:15.887Z,83.90
2019-03-11T12:13:43.683Z,89.70
2019-03-11T12:16:12.361Z,75.40
2019-03-11T12:18:54.121Z,73.80
2019-03-11T12:21:32.812Z,73.60
2019-03-11T12:24:00.436Z,80.70
2019-03-11T12:26:28.291Z,89.00
2019-03-11T12:28:59.895Z,86.70
2019-03-11T12:31:38.936Z,91.20
2019-03-11T12:34:07.344Z,78.90
2019-03-11T12:36:38.717Z,79.80
2019-03-11T12:39:07.598Z,78.30
2019-03-11T12:41:36.594Z,81.50
2019-03-11T12:44:04.577Z,80.60
2019-03-11T12:46:32.526Z,81.90
2019-03-11T12:48:59.981Z,80.60
2019-03-11T12:51:27.932Z,84.80
2019-03-11T12:53:55.739Z,84.30
2019-03-11T12:56:23.484Z,85.80
2019-03-11T12:58:51.119Z,86.20
2019-03-11T13:01:19.171Z,91.60
2019-03-11T13:03:46.653Z,88.50
2019-03-11T13:06:14.283Z,93.30
2019-03-11T13:08:42.256Z,98.70
2019-03-11T13:11:09.911Z,99.90
2019-03-11T13:13:37.425Z,99.90
2019-03-11T13:16:05.040Z,99.90
2019-03-11T13:18:37.940Z,99.90
2019-03-11T13:21:14.062Z,99.90
2019-03-11T13:23:41.866Z,99.90
2019-03-11T13:26:09.789Z,99.90
2019-03-11T13:28:37.907Z,99.90
2019-03-11T13:31:05.444Z,99.90
2019-03-11T13:33:33.136Z,99.90
2019-03-11T13:36:00.725Z,99.90
2019-03-11T13:38:28.871Z,99.90
2019-03-11T13:40:56.422Z,99.90
2019-03-11T13:43:24.954Z,99.90
2019-03-11T13:45:52.444Z,99.90
2019-03-11T13:48:20.115Z,99.90
2019-03-11T13:50:47.657Z,99.90
2019-03-11T13:53:16.070Z,99.90
2019-03-11T13:55:43.683Z,99.90
2019-03-11T13:58:11.697Z,99.90
2019-03-11T14:00:56.381Z,99.90
2019-03-11T14:03:17.102Z,99.90
2019-03-11T14:05:46.850Z,99.90
2019-03-11T14:08:16.345Z,99.90
2019-03-11T14:10:44.532Z,99.90
2019-03-11T14:13:17.358Z,99.90
2019-03-11T14:15:46.695Z,99.90
2019-03-11T14:18:21.759Z,99.90
2019-03-11T14:20:50.430Z,99.90
2019-03-11T14:23:18.312Z,99.90
2019-03-11T14:25:45.881Z,99.90
2019-03-11T14:28:14.905Z,99.90
2019-03-11T14:30:43.107Z,99.90
2019-03-11T14:33:11.219Z,99.90
2019-03-11T14:35:40.761Z,99.90
2019-03-11T14:38:08.349Z,99.90
2019-03-11T14:40:39.494Z,99.90
2019-03-11T14:43:08.639Z,99.90
2019-03-11T14:45:36.312Z,99.90
2019-03-11T14:48:04.134Z,99.90
2019-03-11T14:50:31.739Z,99.90
2019-03-11T14:52:59.579Z,99.90
2019-03-11T14:55:27.813Z,99.90
2019-03-11T14:57:55.737Z,99.90
2019-03-11T15:00:23.955Z,99.90
2019-03-11T15:02:51.620Z,99.90
2019-03-11T15:05:19.215Z,99.90
2019-03-11T15:07:46.873Z,99.90
2019-03-11T15:10:15.549Z,99.90
2019-03-11T15:12:43.528Z,99.90
2019-03-11T15:15:14.547Z,99.90
2019-03-11T15:17:42.280Z,99.90
2019-03-11T15:20:10.206Z,99.90
2019-03-11T15:22:38.015Z,99.90
2019-03-11T15:25:06.819Z,99.90
2019-03-11T15:27:35.023Z,99.90
2019-03-11T15:30:03.227Z,99.90
2019-03-11T15:32:30.952Z,99.90
2019-03-11T15:34:59.461Z,99.90
2019-03-11T15:37:27.460Z,99.90
2019-03-11T15:39:55.274Z,99.90
2019-03-11T15:42:23.278Z,99.90
2019-03-11T15:44:51.032Z,99.90
2019-03-11T15:47:18.828Z,99.90
2019-03-11T15:49:46.627Z,99.90
2019-03-11T15:52:14.230Z,99.90
2019-03-11T15:54:41.782Z,99.90
2019-03-11T15:57:12.301Z,99.90
2019-03-11T15:59:39.954Z,99.90
2019-03-11T16:02:08.215Z,99.90
2019-03-11T16:04:36.204Z,99.90
2019-03-11T16:07:04.745Z,99.90
2019-03-11T16:09:32.849Z,99.90
2019-03-11T16:12:01.547Z,99.90
2019-03-11T16:14:29.618Z,99.90
2019-03-11T16:16:58.747Z,97.60
2019-03-11T16:19:27.401Z,99.10
2019-03-11T16:21:55.564Z,99.70
2019-03-11T16:24:23.713Z,99.90
2019-03-11T16:26:52.537Z,98.40
2019-03-11T16:29:20.141Z,99.20
2019-03-11T16:31:47.731Z,99.90
2019-03-11T16:34:15.756Z,99.90
2019-03-11T16:36:43.575Z,99.90
2019-03-11T16:39:11.992Z,99.90
2019-03-11T16:41:40.014Z,99.90
2019-03-11T16:44:07.633Z,99.90
2019-03-11T16:46:35.358Z,99.90
2019-03-11T16:49:03.221Z,99.90
2019-03-11T16:51:31.304Z,99.90
2019-03-11T16:53:59.467Z,99.90
2019-03-11T16:56:27.855Z,99.90
2019-03-11T16:58:55.488Z,99.90
2019-03-11T17:01:22.938Z,99.90
2019-03-11T17:03:50.537Z,99.90
2019-03-11T17:06:19.154Z,99.90
2019-03-11T17:08:46.696Z,99.90
2019-03-11T17:11:14.706Z,99.90
2019-03-11T17:13:42.441Z,99.90
2019-03-11T17:16:10.307Z,99.90
2019-03-11T17:18:37.836Z,99.90
2019-03-11T17:21:06.930Z,99.90
2019-03-11T17:23:34.629Z,99.90
2019-03-11T17:26:02.480Z,99.90
2019-03-11T17:28:30.338Z,99.90
2019-03-11T17:30:58.493Z,99.90
2019-03-11T17:33:26.089Z,99.90
2019-03-11T17:35:53.741Z,99.90
2019-03-11T17:38:21.596Z,99.90
2019-03-11T17:40:49.229Z,99.90
2019-03-11T17:43:17.451Z,99.90
2019-03-11T17:45:45.549Z,99.90
2019-03-11T17:48:13.651Z,99.90
2019-03-11T17:50:41.535Z,99.90
2019-03-11T17:53:19.612Z,99.90
2019-03-11T17:55:39.656Z,99.90
2019-03-11T17:58:07.315Z,99.90
2019-03-11T18:00:35.271Z,99.90
2019-03-11T18:03:03.633Z,99.90
2019-03-11T18:05:33.206Z,99.90
2019-03-11T18:08:01.147Z,99.90
2019-03-11T18:10:29.212Z,99.90
2019-03-11T18:12:56.916Z,99.90
2019-03-11T18:15:25.110Z,99.90
2019-03-11T18:17:52.813Z,99.90
2019-03-11T18:20:20.445Z,99.90
2019-03-11T18:22:48.770Z,99.90
2019-03-11T18:25:16.389Z,99.90
2019-03-11T18:27:44.170Z,99.90
2019-03-11T18:30:14.762Z,99.90
2019-03-11T18:32:42.379Z,99.90
2019-03-11T18:35:10.079Z,99.90
2019-03-11T18:37:37.678Z,99.90
2019-03-11T18:40:07.411Z,99.90
2019-03-11T18:42:35.334Z,99.90
2019-03-11T18:45:03.131Z,99.90
2019-03-11T18:47:31.150Z,99.90
2019-03-11T18:49:59.189Z,99.90
2019-03-11T18:52:26.955Z,99.90
2019-03-11T18:54:54.636Z,99.90
2019-03-11T18:57:22.369Z,99.90
2019-03-11T18:59:50.284Z,99.90
2019-03-11T19:02:18.237Z,99.90
2019-03-11T19:04:46.330Z,99.90
2019-03-11T19:07:14.257Z,99.90
2019-03-11T19:09:42.067Z,99.90
2019-03-11T19:12:10.051Z,99.90
2019-03-11T19:14:38.373Z,99.90
2019-03-11T19:17:06.671Z,99.90
2019-03-11T19:19:45.608Z,99.90
2019-03-11T19:22:04.068Z,99.90
2019-03-11T19:24:31.620Z,99.90
2019-03-11T19:26:59.497Z,99.90
2019-03-11T19:29:27.024Z,99.90
2019-03-11T19:31:54.919Z,99.90
2019-03-11T19:34:22.820Z,99.90
2019-03-11T19:36:50.433Z,99.90
2019-03-11T19:39:20.281Z,99.90
2019-03-11T19:41:47.844Z,99.90
2019-03-11T19:44:15.411Z,99.90
2019-03-11T19:46:43.065Z,99.90
2019-03-11T19:49:11.514Z,99.90
2019-03-11T19:51:39.294Z,99.90
2019-03-11T19:54:06.846Z,99.90
2019-03-11T19:56:34.665Z,99.90
2019-03-11T19:59:02.206Z,99.90
2019-03-11T20:01:30.232Z,99.90
2019-03-11T20:03:57.749Z,99.90
2019-03-11T20:06:25.637Z,99.90
2019-03-11T20:08:53.408Z,99.90
2019-03-11T20:11:21.014Z,99.90
2019-03-11T20:13:48.879Z,99.90
2019-03-11T20:16:16.557Z,99.90
2019-03-11T20:18:44.456Z,99.90
2019-03-11T20:21:12.105Z,99.90
2019-03-11T20:23:39.779Z,99.90
2019-03-11T20:26:07.496Z,99.90
2019-03-11T20:28:35.131Z,99.90
2019-03-11T20:31:02.752Z,99.90
2019-03-11T20:33:30.365Z,99.90
2019-03-11T20:35:58.252Z,99.90
2019-03-11T20:38:25.829Z,99.90
2019-03-11T20:40:53.662Z,99.90
2019-03-11T20:43:21.481Z,99.90
2019-03-11T20:45:49.423Z,99.90
2019-03-11T20:48:16.968Z,99.90
2019-03-11T20:50:44.582Z,99.90
2019-03-11T20:53:12.508Z,99.90
2019-03-11T20:55:40.827Z,99.90
2019-03-11T20:58:08.877Z,99.90
2019-03-11T21:00:36.548Z,99.90
2019-03-11T21:03:04.410Z,99.90
2019-03-11T21:05:35.213Z,99.90
2019-03-11T21:08:01.699Z,99.90
2019-03-11T21:10:29.662Z,99.90
2019-03-11T21:12:57.491Z,99.90
2019-03-11T21:15:25.553Z,99.90
2019-03-11T21:17:53.396Z,99.90
2019-03-11T21:20:21.172Z,99.90
2019-03-11T21:22:49.026Z,99.90
2019-03-11T21:25:16.852Z,99.90
2019-03-11T21:27:44.683Z,99.90
2019-03-11T21:30:14.364Z,99.90
2019-03-11T21:32:42.002Z,99.90
2019-03-11T21:35:09.813Z,99.90
2019-03-11T21:37:37.528Z,99.90
2019-03-11T21:40:05.957Z,99.90
2019-03-11T21:42:33.810Z,99.90
2019-03-11T21:45:01.773Z,99.90
2019-03-11T21:47:29.379Z,99.90
2019-03-11T21:49:57.359Z,99.90
2019-03-11T21:52:25.209Z,99.90
2019-03-11T21:54:53.550Z,99.90
2019-03-11T21:57:21.294Z,99.90
2019-03-11T21:59:49.627Z,99.90
2019-03-11T22:02:17.249Z,99.90
2019-03-11T22:04:45.588Z,99.90
2019-03-11T22:07:13.216Z,99.90
2019-03-11T22:09:41.487Z,99.90
2019-03-11T22:12:10.740Z,99.90
2019-03-11T22:14:38.662Z,99.90
2019-03-11T22:17:07.232Z,99.90
2019-03-11T22:19:35.047Z,99.90
2019-03-11T22:22:02.714Z,99.90
2019-03-11T22:24:30.681Z,99.90
2019-03-11T22:26:58.123Z,99.90
2019-03-11T22:29:26.020Z,99.90
2019-03-11T22:31:53.685Z,99.90
2019-03-11T22:34:21.175Z,99.90
2019-03-11T22:36:49.088Z,99.90
2019-03-11T22:39:16.593Z,99.90
2019-03-11T22:41:44.808Z,99.90
2019-03-11T22:44:12.413Z,99.90
2019-03-11T22:46:39.983Z,99.90
2019-03-11T22:49:07.586Z,99.90
2019-03-11T22:51:35.721Z,99.90
2019-03-11T22:54:03.508Z,99.90
2019-03-11T22:56:31.443Z,99.90
2019-03-11T22:58:59.524Z,99.90
2019-03-11T23:01:28.142Z,99.90
2019-03-11T23:03:57.638Z,99.90
2019-03-11T23:06:25.688Z,99.90
2019-03-11T23:08:53.378Z,99.90
2019-03-11T23:11:21.039Z,99.90
2019-03-11T23:13:48.748Z,99.90
2019-03-11T23:16:16.273Z,99.90
2019-03-11T23:18:43.760Z,99.90
2019-03-11T23:21:11.274Z,99.90
2019-03-11T23:23:38.815Z,99.90
2019-03-11T23:26:06.789Z,99.90
2019-03-11T23:28:34.936Z,99.90
2019-03-11T23:31:02.691Z,99.90
2019-03-11T23:33:30.141Z,99.90
2019-03-11T23:35:58.355Z,99.90
2019-03-11T23:38:25.893Z,99.90
2019-03-11T23:40:53.748Z,99.90
2019-03-11T23:43:21.209Z,99.90
2019-03-11T23:45:48.933Z,99.90
2019-03-11T23:48:16.962Z,99.90
2019-03-11T23:50:44.548Z,99.90
2019-03-11T23:53:12.400Z,99.90
2019-03-11T23:55:39.782Z,99.90
2019-03-11T23:58:07.213Z,99.90
